Somersworth, New Hampshire
Current Conditions -  °F | °C
As of 4:51 PM on Thursday 18 Dec 2014 (Local Time) from KDAW Reporting Station
Overcast Overcast  
Wind Chill: 31°   Ceiling: 3600
Heat Index: 38°   Visibility: 10mi
Dew Point: 26°   Wind: 9mph
Humidity: 62%   Direction: 270°W
Pressure: 29.76"   Gusts: 22mph
Location:  43.26°N, 70.86°W
Report Text: KDAW 182151Z AUTO 27008G19KT 10SM BKN036 OVC060 03/M03 A2976 RMK AO2 SLP077 T00331033
Loading
Personal Weather Stations






























Interactive Weather Map New forecast layout! Learn more

10-Day Weather Forecast

Advertisements
Track Severe Weather on mobile